createdAt,value
2022-07-28T00:01:19.920Z,20513.03
2022-07-28T00:03:49.110Z,20504.91
2022-07-28T00:06:18.631Z,20478.47
2022-07-28T00:08:46.842Z,20450.03
2022-07-28T00:11:15.218Z,20421.56
2022-07-28T00:13:43.276Z,20423.59
2022-07-28T00:16:11.596Z,20429.69
2022-07-28T00:18:39.848Z,20468.31
2022-07-28T00:21:08.272Z,20517.09
2022-07-28T00:23:39.425Z,20433.75
2022-07-28T00:26:09.505Z,20433.75
2022-07-28T00:28:38.008Z,20401.22
2022-07-28T00:31:12.406Z,20431.72
2022-07-28T00:33:42.166Z,20445.94
2022-07-28T00:36:11.690Z,20454.09
2022-07-28T00:38:44.348Z,20421.56
2022-07-28T00:41:14.274Z,20389.03
2022-07-28T00:43:44.982Z,20445.94
2022-07-28T00:46:14.429Z,20433.75
2022-07-28T00:48:45.963Z,20437.81
2022-07-28T00:51:16.333Z,20401.22
2022-07-28T00:53:47.127Z,20372.78
2022-07-28T00:56:15.856Z,20395.13
2022-07-28T00:58:44.814Z,20395.13
2022-07-28T01:01:16.003Z,20378.88
2022-07-28T01:03:47.643Z,20364.66
2022-07-28T01:06:36.764Z,20368.72
2022-07-28T01:09:19.798Z,20338.22
2022-07-28T01:12:02.536Z,20303.66
2022-07-28T01:14:39.422Z,20370.75
2022-07-28T01:17:27.814Z,20330.09
2022-07-28T01:20:07.600Z,20313.84
2022-07-28T01:22:42.172Z,20285.38
2022-07-28T01:25:25.088Z,20348.38
2022-07-28T01:28:13.655Z,20346.34
2022-07-28T01:30:47.387Z,20387.00
2022-07-28T01:33:21.287Z,20344.31
2022-07-28T01:36:09.684Z,20346.34
2022-07-28T01:38:40.412Z,20336.19
2022-07-28T01:41:15.779Z,20336.19
2022-07-28T01:43:58.017Z,20305.69
2022-07-28T01:46:28.086Z,20311.78
2022-07-28T01:48:59.103Z,20297.56
2022-07-28T01:51:31.432Z,20265.03
2022-07-28T01:54:02.893Z,20271.16
2022-07-28T01:56:34.369Z,20289.44
2022-07-28T01:59:09.883Z,20238.63
2022-07-28T02:01:45.389Z,20248.78
2022-07-28T02:04:19.685Z,20330.09
2022-07-28T02:06:50.732Z,20338.22
2022-07-28T02:09:22.272Z,20285.38
2022-07-28T02:11:55.105Z,20273.19
2022-07-28T02:14:25.886Z,20228.47
2022-07-28T02:16:59.293Z,20244.72
2022-07-28T02:19:30.247Z,20277.25
2022-07-28T02:21:58.690Z,20269.13
2022-07-28T02:24:30.986Z,20260.97
2022-07-28T02:27:04.250Z,20210.16
2022-07-28T02:29:51.682Z,20228.47
2022-07-28T02:32:33.027Z,20216.25
2022-07-28T02:35:09.560Z,20189.84
2022-07-28T02:37:41.994Z,20256.91
2022-07-28T02:40:15.973Z,20234.56
2022-07-28T02:42:49.752Z,20224.41
2022-07-28T02:45:26.316Z,20212.19
2022-07-28T02:48:02.792Z,20238.63
2022-07-28T02:50:31.197Z,20218.31
2022-07-28T02:53:15.518Z,20195.94
2022-07-28T02:55:47.370Z,20226.44
2022-07-28T02:58:21.990Z,20232.53
2022-07-28T03:00:52.681Z,20220.34
2022-07-28T03:03:24.808Z,20218.31
2022-07-28T03:05:53.805Z,20214.22
2022-07-28T03:08:22.022Z,20169.53
2022-07-28T03:10:50.263Z,20167.47
2022-07-28T03:13:18.379Z,20143.09
2022-07-28T03:15:46.485Z,20208.13
2022-07-28T03:18:14.564Z,20151.22
2022-07-28T03:20:43.983Z,20187.81
2022-07-28T03:23:12.271Z,20145.13
2022-07-28T03:25:47.249Z,20173.59
2022-07-28T03:28:21.041Z,20171.56
2022-07-28T03:31:02.896Z,20195.94
2022-07-28T03:33:31.206Z,20181.72
2022-07-28T03:36:10.295Z,20151.22
2022-07-28T03:38:44.747Z,20163.41
2022-07-28T03:41:16.033Z,20212.19
2022-07-28T03:43:45.847Z,20202.03
2022-07-28T03:46:14.549Z,20216.25
2022-07-28T03:48:42.857Z,20189.84
2022-07-28T03:51:12.397Z,20222.38
2022-07-28T03:53:42.634Z,20191.88
2022-07-28T03:56:10.757Z,20165.44
2022-07-28T03:58:39.054Z,20204.06
2022-07-28T04:01:07.226Z,20191.88
2022-07-28T04:03:43.741Z,20220.34
2022-07-28T04:06:15.089Z,20212.19
2022-07-28T04:08:43.553Z,20212.19
2022-07-28T04:11:11.748Z,20187.81
2022-07-28T04:13:39.855Z,20195.94
2022-07-28T04:16:08.411Z,20260.97
2022-07-28T04:18:36.765Z,20254.88
2022-07-28T04:21:05.914Z,20295.53
2022-07-28T04:23:35.480Z,20309.75
2022-07-28T04:26:03.589Z,20358.56
2022-07-28T04:28:31.701Z,20346.34
2022-07-28T04:31:00.017Z,20330.09
2022-07-28T04:33:28.187Z,20334.16
2022-07-28T04:35:56.238Z,20387.00
2022-07-28T04:38:24.355Z,20374.81
2022-07-28T04:40:53.790Z,20397.16
2022-07-28T04:43:22.907Z,20334.16
2022-07-28T04:45:54.232Z,20360.59
2022-07-28T04:48:23.940Z,20433.75
2022-07-28T04:50:53.642Z,20391.06
2022-07-28T04:53:22.869Z,20393.09
2022-07-28T04:55:53.611Z,20421.56
2022-07-28T04:58:24.996Z,20454.09
2022-07-28T05:00:53.448Z,20468.31
2022-07-28T05:03:22.284Z,20561.81
2022-07-28T05:05:54.405Z,20687.84
2022-07-28T05:08:25.765Z,20866.75
2022-07-28T05:10:56.544Z,21017.19
2022-07-28T05:13:31.821Z,21190.00
2022-07-28T05:16:02.433Z,21183.88
2022-07-28T05:18:30.773Z,21181.84
2022-07-28T05:20:59.057Z,21163.56
2022-07-28T05:23:27.528Z,21250.97
2022-07-28T05:25:55.631Z,21269.28
2022-07-28T05:28:25.386Z,21135.09
2022-07-28T05:30:54.139Z,21096.47
2022-07-28T05:33:22.548Z,21019.22
2022-07-28T05:35:57.445Z,21007.00
2022-07-28T05:38:26.047Z,20937.91
2022-07-28T05:40:54.507Z,20909.44
2022-07-28T05:43:22.797Z,20858.59
2022-07-28T05:45:52.680Z,20791.53
2022-07-28T05:48:22.542Z,20824.06
2022-07-28T05:50:51.940Z,20872.84
2022-07-28T05:53:21.176Z,20866.75
2022-07-28T05:55:59.784Z,20815.91
2022-07-28T05:58:29.118Z,20809.81
2022-07-28T06:01:01.993Z,20830.16
2022-07-28T06:03:33.586Z,20838.28
2022-07-28T06:06:14.574Z,20852.50
2022-07-28T06:08:43.595Z,20830.16
2022-07-28T06:11:11.964Z,20842.34
2022-07-28T06:13:49.924Z,20858.59
2022-07-28T06:16:20.781Z,20805.75
2022-07-28T06:18:49.323Z,20815.91
2022-07-28T06:21:17.474Z,20811.84
2022-07-28T06:23:46.148Z,20840.31
2022-07-28T06:26:14.329Z,20811.84
2022-07-28T06:28:42.443Z,20832.19
2022-07-28T06:31:10.627Z,20842.34
2022-07-28T06:33:40.180Z,20783.41
2022-07-28T06:36:08.373Z,20809.81
2022-07-28T06:38:37.056Z,20846.41
2022-07-28T06:41:05.286Z,20848.44
2022-07-28T06:43:38.333Z,20797.63
2022-07-28T06:46:07.395Z,20799.66
2022-07-28T06:48:37.608Z,20779.31
2022-07-28T06:51:07.483Z,20842.34
2022-07-28T06:53:36.033Z,20836.25
2022-07-28T06:56:06.244Z,20874.88
2022-07-28T06:58:34.401Z,20872.84
2022-07-28T07:01:07.323Z,20891.13
2022-07-28T07:03:36.046Z,20935.88
2022-07-28T07:06:04.410Z,20923.66
2022-07-28T07:08:34.210Z,20937.91
2022-07-28T07:11:02.489Z,20968.38
2022-07-28T07:13:30.741Z,20929.75
2022-07-28T07:15:58.934Z,20909.44
2022-07-28T07:18:27.468Z,20941.97
2022-07-28T07:20:58.203Z,20925.69
2022-07-28T07:23:26.373Z,20911.47
2022-07-28T07:25:56.235Z,20954.16
2022-07-28T07:28:24.405Z,20935.88
2022-07-28T07:30:52.631Z,20984.66
2022-07-28T07:33:20.826Z,20974.50
2022-07-28T07:35:48.956Z,20960.25
2022-07-28T07:38:17.057Z,21011.09
2022-07-28T07:40:45.373Z,21004.97
2022-07-28T07:43:14.808Z,21007.00
2022-07-28T07:45:42.953Z,21076.13
2022-07-28T07:48:11.107Z,21039.53
2022-07-28T07:50:39.381Z,21031.41
2022-07-28T07:53:07.668Z,21045.63
2022-07-28T07:55:37.782Z,21070.03
2022-07-28T07:58:06.677Z,21078.16
2022-07-28T08:00:36.134Z,21057.84
2022-07-28T08:03:04.467Z,21082.25
2022-07-28T08:05:39.424Z,21065.97
2022-07-28T08:08:08.270Z,21104.59
2022-07-28T08:10:37.774Z,21106.63
2022-07-28T08:13:07.453Z,21065.97
2022-07-28T08:15:37.096Z,21124.94
2022-07-28T08:18:05.745Z,21129.00
2022-07-28T08:20:33.884Z,21124.94
2022-07-28T08:23:02.329Z,21135.09
2022-07-28T08:25:30.487Z,21183.88
2022-07-28T08:27:58.578Z,21175.75
2022-07-28T08:30:32.012Z,21204.22
2022-07-28T08:33:02.858Z,21261.16
2022-07-28T08:35:34.531Z,21267.25
2022-07-28T08:38:04.544Z,21196.09
2022-07-28T08:40:33.514Z,21257.09
2022-07-28T08:43:16.222Z,21212.34
2022-07-28T08:45:48.903Z,21269.28
2022-07-28T08:48:22.593Z,21281.47
2022-07-28T08:50:52.420Z,21320.09
2022-07-28T08:53:21.850Z,21387.19
2022-07-28T08:55:50.238Z,21403.47
2022-07-28T08:58:18.983Z,21370.94
2022-07-28T09:00:48.450Z,21387.19
2022-07-28T09:03:18.270Z,21379.06
2022-07-28T09:05:47.465Z,21403.47
2022-07-28T09:08:18.695Z,21356.69
2022-07-28T09:10:47.099Z,21407.53
2022-07-28T09:13:16.565Z,21423.81
2022-07-28T09:15:46.546Z,21458.38
2022-07-28T09:18:15.658Z,21460.41
2022-07-28T09:20:46.118Z,21468.53
2022-07-28T09:23:42.837Z,21460.41
2022-07-28T09:26:12.181Z,21572.22
2022-07-28T09:28:55.288Z,21562.06
2022-07-28T09:31:26.541Z,21586.47
2022-07-28T09:34:03.972Z,21619.00
2022-07-28T09:36:41.421Z,21639.31
2022-07-28T09:39:10.493Z,21582.38
2022-07-28T09:41:49.245Z,21612.88
2022-07-28T09:44:20.487Z,21645.44
2022-07-28T09:46:49.260Z,21680.00
2022-07-28T09:49:18.093Z,21645.44
2022-07-28T09:52:01.698Z,21643.38
2022-07-28T09:54:29.853Z,21669.81
2022-07-28T09:56:58.153Z,21635.25
2022-07-28T09:59:26.578Z,21641.34
2022-07-28T10:02:00.982Z,21639.31
2022-07-28T10:04:36.215Z,21675.94
2022-07-28T10:07:09.988Z,21669.81
2022-07-28T10:09:39.554Z,21657.63
2022-07-28T10:12:23.300Z,21675.94
2022-07-28T10:14:53.479Z,21659.66
2022-07-28T10:17:29.024Z,21700.31
2022-07-28T10:20:01.360Z,21659.66
2022-07-28T10:22:33.988Z,21692.19
2022-07-28T10:25:06.701Z,21716.59
2022-07-28T10:27:35.105Z,21718.63
2022-07-28T10:30:06.286Z,21773.53
2022-07-28T10:32:41.607Z,21769.47
2022-07-28T10:35:12.791Z,21757.25
2022-07-28T10:37:51.745Z,21785.72
2022-07-28T10:40:27.574Z,21765.38
2022-07-28T10:42:57.488Z,21808.09
2022-07-28T10:45:48.159Z,21818.25
2022-07-28T10:48:15.752Z,21881.28
2022-07-28T10:50:45.492Z,21832.50
2022-07-28T10:53:28.738Z,21793.84
2022-07-28T10:56:06.123Z,21791.81
2022-07-28T10:58:49.402Z,21832.50
2022-07-28T11:01:51.624Z,21844.69
2022-07-28T11:04:58.998Z,21903.66
2022-07-28T11:07:40.543Z,21893.50
2022-07-28T11:10:30.924Z,21899.59
2022-07-28T11:13:00.608Z,21885.38
2022-07-28T11:15:35.756Z,21848.75
2022-07-28T11:18:10.247Z,21840.63
2022-07-28T11:21:07.824Z,21889.44
2022-07-28T11:23:47.848Z,21936.19
2022-07-28T11:26:37.652Z,21940.25
2022-07-28T11:29:22.815Z,22005.34
2022-07-28T11:32:03.973Z,22039.91
2022-07-28T11:35:19.975Z,22056.19
2022-07-28T11:38:14.429Z,21972.81
2022-07-28T11:40:45.207Z,22023.63
2022-07-28T11:43:39.394Z,21940.25
2022-07-28T11:46:25.541Z,21972.81
2022-07-28T11:49:21.704Z,21952.47
2022-07-28T11:52:22.908Z,21993.13
2022-07-28T11:54:57.016Z,21952.47
2022-07-28T11:57:27.739Z,21956.53
2022-07-28T12:00:02.153Z,21915.88
2022-07-28T12:02:33.305Z,21913.84
2022-07-28T12:05:08.127Z,21964.66
2022-07-28T12:07:40.605Z,22029.75
2022-07-28T12:10:53.799Z,22009.41
2022-07-28T12:13:28.894Z,22098.88
2022-07-28T12:15:58.482Z,22031.78
2022-07-28T12:18:26.674Z,22001.28
2022-07-28T12:20:55.512Z,22007.38
2022-07-28T12:23:45.533Z,22043.97
2022-07-28T12:26:31.378Z,22070.41
2022-07-28T12:29:00.112Z,22086.69
2022-07-28T12:31:33.206Z,22011.44
2022-07-28T12:34:01.756Z,22060.25
2022-07-28T12:36:30.645Z,22037.88
2022-07-28T12:38:59.703Z,22100.91
2022-07-28T12:41:33.695Z,22117.19
2022-07-28T12:44:05.851Z,22109.03
2022-07-28T12:46:35.932Z,22080.56
2022-07-28T12:49:04.132Z,22058.22
2022-07-28T12:51:34.747Z,22096.84
2022-07-28T12:54:03.923Z,22096.84
2022-07-28T12:56:32.939Z,22086.69
2022-07-28T12:59:09.495Z,22088.72
2022-07-28T13:01:51.927Z,22107.00
2022-07-28T13:04:46.407Z,22139.56
2022-07-28T13:07:24.462Z,22155.81
2022-07-28T13:10:05.150Z,22178.19
2022-07-28T13:12:33.862Z,22127.34
2022-07-28T13:15:06.840Z,22141.59
2022-07-28T13:20:34.370Z,22170.06
2022-07-28T13:23:02.298Z,22151.75
2022-07-28T13:25:30.286Z,22174.13
2022-07-28T13:28:00.177Z,22208.69
2022-07-28T13:30:28.130Z,22259.53
2022-07-28T13:32:58.350Z,22235.13
2022-07-28T13:35:26.421Z,22216.81
2022-07-28T13:37:55.754Z,22231.06
2022-07-28T13:40:23.999Z,22241.22
2022-07-28T13:42:53.139Z,22257.50
2022-07-28T13:45:25.179Z,22269.69
2022-07-28T13:47:58.067Z,22292.06
2022-07-28T13:50:26.978Z,22338.84
2022-07-28T13:52:56.474Z,22328.69
2022-07-28T13:55:24.655Z,22294.09
2022-07-28T13:57:55.222Z,22310.38
2022-07-28T14:00:24.947Z,22328.69
2022-07-28T14:02:53.187Z,22247.34
2022-07-28T14:05:21.534Z,22245.28
2022-07-28T14:07:49.692Z,22229.03
2022-07-28T14:10:19.445Z,22281.91
2022-07-28T14:12:47.553Z,22255.47
2022-07-28T14:15:16.209Z,22306.31
2022-07-28T14:17:45.891Z,22324.59
2022-07-28T14:20:15.626Z,22330.72
2022-07-28T14:22:46.615Z,22349.00
2022-07-28T14:25:20.601Z,22326.66
2022-07-28T14:27:51.877Z,22328.69
2022-07-28T14:30:20.889Z,22334.78
2022-07-28T14:32:49.627Z,22355.13
2022-07-28T14:35:17.834Z,22367.31
2022-07-28T14:38:23.543Z,22369.34
2022-07-28T14:40:36.856Z,22359.19
2022-07-28T14:43:10.175Z,22410.03
2022-07-28T14:46:09.283Z,22460.88
2022-07-28T14:48:27.103Z,22432.41
2022-07-28T14:50:56.999Z,22464.94
2022-07-28T14:53:28.012Z,22448.66
2022-07-28T14:55:56.778Z,22477.13
2022-07-28T14:58:26.258Z,22444.59
2022-07-28T15:00:54.910Z,22438.50
2022-07-28T15:03:23.088Z,22450.69
2022-07-28T15:05:51.279Z,22495.44
2022-07-28T15:08:19.344Z,22495.44
2022-07-28T15:10:49.120Z,22527.97
2022-07-28T15:13:17.282Z,22501.53
2022-07-28T15:15:47.006Z,22515.78
2022-07-28T15:18:15.108Z,22505.59
2022-07-28T15:20:43.447Z,22481.22
2022-07-28T15:23:11.631Z,22481.22
2022-07-28T15:25:39.816Z,22460.88
2022-07-28T15:28:07.953Z,22426.28
2022-07-28T15:30:36.032Z,22438.50
2022-07-28T15:33:11.948Z,22403.94
2022-07-28T15:35:58.989Z,22434.44
2022-07-28T15:38:29.450Z,22462.91
2022-07-28T15:40:59.545Z,22507.66
2022-07-28T15:43:27.800Z,22550.34
2022-07-28T15:45:57.502Z,22611.38
2022-07-28T15:48:27.013Z,22552.38
2022-07-28T15:50:55.405Z,22530.00
2022-07-28T15:53:23.728Z,22521.88
2022-07-28T15:55:52.164Z,22532.06
2022-07-28T15:58:21.550Z,22487.31
2022-07-28T16:00:50.017Z,22462.91
2022-07-28T16:03:18.259Z,22473.06
2022-07-28T16:05:49.776Z,22420.19
2022-07-28T16:08:22.869Z,22410.03
2022-07-28T16:10:53.115Z,22412.06
2022-07-28T16:13:36.035Z,22410.03
2022-07-28T16:16:08.257Z,22408.00
2022-07-28T16:18:37.430Z,22351.03
2022-07-28T16:21:08.233Z,22371.38
2022-07-28T16:23:37.123Z,22300.22
2022-07-28T16:26:07.758Z,22281.91
2022-07-28T16:28:36.410Z,22231.06
2022-07-28T16:31:04.626Z,22224.97
2022-07-28T16:33:33.038Z,22168.03
2022-07-28T16:36:02.261Z,22178.19
2022-07-28T16:38:31.718Z,22184.28
2022-07-28T16:40:59.761Z,22184.28
2022-07-28T16:43:27.731Z,22202.59
2022-07-28T16:45:55.844Z,22161.91
2022-07-28T16:48:24.131Z,22157.84
2022-07-28T16:50:52.224Z,22133.44
2022-07-28T16:53:20.257Z,22131.41
2022-07-28T16:55:50.227Z,22192.44
2022-07-28T16:58:19.914Z,22190.38
2022-07-28T17:00:47.973Z,22131.41
2022-07-28T17:03:16.900Z,22080.56
2022-07-28T17:05:45.102Z,22074.47
2022-07-28T17:08:13.388Z,22082.63
2022-07-28T17:10:41.562Z,22046.00
2022-07-28T17:13:12.020Z,22127.34
2022-07-28T17:15:41.481Z,22090.75
2022-07-28T17:18:09.638Z,22076.50
2022-07-28T17:20:41.879Z,22043.97
2022-07-28T17:23:10.104Z,22062.28
2022-07-28T17:28:28.458Z,22096.84
2022-07-28T17:30:56.579Z,22046.00
2022-07-28T17:33:24.802Z,22060.25
2022-07-28T17:35:54.995Z,22046.00
2022-07-28T17:38:29.522Z,22037.88
2022-07-28T17:41:03.696Z,21978.91
2022-07-28T17:43:33.195Z,21954.50
2022-07-28T17:46:02.927Z,21891.47
2022-07-28T17:48:38.263Z,21946.38
2022-07-28T17:51:06.556Z,21891.47
2022-07-28T17:53:39.337Z,21887.41
2022-07-28T17:56:08.579Z,21826.41
2022-07-28T17:58:39.481Z,21781.66
2022-07-28T18:01:12.074Z,21781.66
2022-07-28T18:03:56.841Z,21769.47
2022-07-28T18:06:34.320Z,21806.06
2022-07-28T18:09:06.624Z,21745.06
2022-07-28T18:11:57.798Z,21802.00
2022-07-28T18:14:28.604Z,21716.59
2022-07-28T18:16:57.497Z,21755.22
2022-07-28T18:19:26.008Z,21749.13
2022-07-28T18:21:54.163Z,21680.00
2022-07-28T18:24:23.070Z,21661.69
2022-07-28T18:26:52.510Z,21684.06
2022-07-28T18:29:21.851Z,21598.66
2022-07-28T18:31:52.638Z,21641.34
2022-07-28T18:34:24.994Z,21610.84
2022-07-28T18:36:54.137Z,21616.97
2022-07-28T18:39:22.643Z,21582.38
2022-07-28T18:41:50.695Z,21501.06
2022-07-28T18:44:19.984Z,21513.25
2022-07-28T18:46:49.552Z,21507.16
2022-07-28T18:49:19.970Z,21507.16
2022-07-28T18:51:49.268Z,21505.13
2022-07-28T18:54:24.762Z,21535.63
2022-07-28T18:56:56.390Z,21515.28
2022-07-28T18:59:24.515Z,21497.00
2022-07-28T19:01:52.732Z,21497.00
2022-07-28T19:04:22.143Z,21468.53
2022-07-28T19:06:50.832Z,21440.06
2022-07-28T19:09:19.057Z,21399.41
2022-07-28T19:11:47.064Z,21383.13
2022-07-28T19:14:15.634Z,21391.28
2022-07-28T19:16:44.438Z,21401.44
2022-07-28T19:19:12.891Z,21316.03
2022-07-28T19:21:43.262Z,21346.53
2022-07-28T19:24:12.581Z,21391.28
2022-07-28T19:26:41.356Z,21364.84
2022-07-28T19:29:09.652Z,21289.59
2022-07-28T19:31:37.776Z,21383.13
2022-07-28T19:34:05.781Z,21360.78
2022-07-28T19:36:33.843Z,21356.69
2022-07-28T19:39:03.223Z,21322.13
2022-07-28T19:41:31.575Z,21328.25
2022-07-28T19:43:59.596Z,21297.75
2022-07-28T19:46:27.602Z,21263.19
2022-07-28T19:48:56.197Z,21326.22
2022-07-28T19:51:24.918Z,21350.59
2022-07-28T19:53:52.970Z,21344.50
2022-07-28T19:56:27.586Z,21295.72
2022-07-28T19:58:58.849Z,21261.16
2022-07-28T20:01:27.202Z,21299.78
2022-07-28T20:04:03.731Z,21238.78
2022-07-28T20:06:33.294Z,21255.03
2022-07-28T20:09:01.859Z,21224.56
2022-07-28T20:11:32.795Z,21230.66
2022-07-28T20:14:02.018Z,21179.81
2022-07-28T20:16:30.405Z,21159.50
2022-07-28T20:18:58.608Z,21165.59
2022-07-28T20:21:27.074Z,21167.63
2022-07-28T20:23:56.964Z,21200.16
2022-07-28T20:26:26.224Z,21126.97
2022-07-28T20:28:58.252Z,21114.75
2022-07-28T20:31:26.412Z,21135.09
2022-07-28T20:33:54.548Z,21135.09
2022-07-28T20:36:26.370Z,21122.91
2022-07-28T20:38:57.589Z,21102.56
2022-07-28T20:41:25.677Z,21124.94
2022-07-28T20:44:29.752Z,21114.75
2022-07-28T20:46:43.486Z,21104.59
2022-07-28T20:49:11.632Z,21116.78
2022-07-28T20:51:39.776Z,21098.50
2022-07-28T20:54:18.964Z,21118.84
2022-07-28T20:56:47.079Z,21094.44
2022-07-28T20:59:16.533Z,21061.91
2022-07-28T21:01:44.721Z,21070.03
2022-07-28T21:04:13.273Z,21086.31
2022-07-28T21:06:43.676Z,21070.03
2022-07-28T21:09:19.942Z,21094.44
2022-07-28T21:11:48.288Z,21074.09
2022-07-28T21:14:18.026Z,21045.63
2022-07-28T21:16:46.502Z,20984.66
2022-07-28T21:19:14.555Z,21000.91
2022-07-28T21:21:42.514Z,20968.38
2022-07-28T21:24:10.698Z,21031.41
2022-07-28T21:26:38.768Z,20990.75
2022-07-28T21:29:12.422Z,21023.28
2022-07-28T21:32:03.721Z,21065.97
2022-07-28T21:34:34.345Z,20998.88
2022-07-28T21:37:03.023Z,20982.63
2022-07-28T21:39:31.125Z,20972.47
2022-07-28T21:41:59.687Z,20984.66
2022-07-28T21:44:27.995Z,20948.06
2022-07-28T21:46:57.389Z,20935.88
2022-07-28T21:49:28.533Z,20952.13
2022-07-28T21:51:56.622Z,20978.56
2022-07-28T21:54:24.802Z,20984.66
2022-07-28T21:56:52.869Z,20968.38
2022-07-28T21:59:20.926Z,20921.63
2022-07-28T22:01:48.989Z,20956.19
2022-07-28T22:04:19.491Z,20933.81
2022-07-28T22:06:47.865Z,20968.38
2022-07-28T22:09:16.010Z,20954.16
2022-07-28T22:11:44.163Z,20952.13
2022-07-28T22:14:12.366Z,20948.06
2022-07-28T22:16:40.731Z,20982.63
2022-07-28T22:19:11.738Z,20941.97
2022-07-28T22:21:41.171Z,20923.66
2022-07-28T22:24:09.867Z,20927.72
2022-07-28T22:26:38.077Z,20939.94
2022-07-28T22:29:06.083Z,20887.06
2022-07-28T22:31:34.226Z,20911.47
2022-07-28T22:34:02.335Z,20903.34
2022-07-28T22:36:30.419Z,20911.47
2022-07-28T22:38:59.862Z,20885.03
2022-07-28T22:41:28.121Z,20919.59
2022-07-28T22:43:56.154Z,20891.13
2022-07-28T22:46:24.449Z,20939.94
2022-07-28T22:48:52.641Z,20872.84
2022-07-28T22:51:20.868Z,20876.91
2022-07-28T22:53:49.226Z,20844.38
2022-07-28T22:56:18.866Z,20840.31
2022-07-28T22:58:47.047Z,20868.78
2022-07-28T23:01:15.168Z,20809.81
2022-07-28T23:03:43.440Z,20822.03
2022-07-28T23:06:13.784Z,20799.66
2022-07-28T23:08:41.847Z,20834.22
2022-07-28T23:11:09.905Z,20785.44
2022-07-28T23:13:39.350Z,20805.75
2022-07-28T23:16:09.459Z,20801.69
2022-07-28T23:18:40.217Z,20805.75
2022-07-28T23:21:09.229Z,20817.94
2022-07-28T23:23:37.619Z,20822.03
2022-07-28T23:26:06.596Z,20817.94
2022-07-28T23:28:36.180Z,20785.44
2022-07-28T23:31:06.193Z,20805.75
2022-07-28T23:33:55.236Z,20791.53
2022-07-28T23:36:26.702Z,20820.00
2022-07-28T23:38:56.970Z,20799.66
2022-07-28T23:41:26.342Z,20787.47
2022-07-28T23:43:54.732Z,20801.69
2022-07-28T23:46:24.380Z,20809.81
2022-07-28T23:48:52.663Z,20793.56
2022-07-28T23:51:22.556Z,20858.59
2022-07-28T23:54:06.865Z,20832.19
2022-07-28T23:56:34.979Z,20830.16
2022-07-28T23:59:03.092Z,20852.50
